Lyonsville, New Jersey
Current Conditions -  °F | °C
As of 5:53 PM on Friday 31 Oct 2014 (Local Time) from KCDW Reporting Station
Overcast Overcast  
Wind Chill: 52°   Ceiling: 5500
Heat Index: 52°   Visibility: 10mi
Dew Point: 35°   Wind: 3mph
Humidity: 53%   Direction: 40°NE
Pressure: 29.91"   Gusts: NA
Location:  40.929°N, 74.4211°W
Report Text: KCDW 312153Z AUTO 04003KT 10SM OVC055 11/02 A2991 RMK AO2 SLP133 T01110017 TSNO
Loading
Personal Weather Stations






























Interactive Weather Map
Tropical Storm Tracking
New forecast layout! Learn more

10-Day Weather Forecast

Advertisements
Track Severe Weather on mobile